Accueil
METAR-TAF:

METAR-TAF

Aéroports :

Aéroport international de Tianjin Binhai

Tianjin, Chine

latitude: 39-11N, longitude: 117-21E, altitude: 3 m

Observation

Le bulletin a été fait il y a 22 minutes, à 20:00 UTC
Vent 6 kt de ouest/nord-ouest
Température 10°C
Humidité 40%
Pression 1025 hPa
Visibilité 10 km ou plus
pas de nuages en-dessous de 1500 mètres et pas de cumulonimbus.

METAR: ZBTJ 102000Z 29003MPS CAVOK 10/M03 Q1025 NOSIG

Heure: 04:22 (20:22 UTC)

Prévision

Le bulletin a été fait il y a 5 heures et 26 minutes, à 14:56 UTC
Prévision valable du 10 à 18 UTC au 11 à 18 UTC
Vent 8 kt de nord/nord-ouest
Visibilité: 5000 m
brume sèche

TAF: ZBTJ 101456Z 1018/1118 34004MPS 5000 HZ NSC TX21/1107Z TN06/1021Z

Observations et prévisions météorologiques de plus de 4000 aéroports (messages METAR et TAF).

Les stations disponibles sont représentées par des disques jaunes et rouges sur la carte.

Passer la souris dessus pour voir le nom de la station.

Cliquer dessus pour voir les observations et prévisions météorologiques.

Pour changer de carte: cliquez sur les boutons verts avec une croix noire pour zoomer, sur le bouton vert avec un tiret pour effectuer un zoom arrière, ou sur les flèches vertes pour les cartes adjacentes.


METAR-TAF: